createdAt,value
2018-08-13T00:02:28.895Z,49.60
2018-08-13T00:04:57.584Z,49.50
2018-08-13T00:07:26.379Z,49.50
2018-08-13T00:09:55.023Z,49.50
2018-08-13T00:12:24.060Z,49.40
2018-08-13T00:14:52.643Z,49.40
2018-08-13T00:17:21.235Z,49.50
2018-08-13T00:19:50.156Z,49.40
2018-08-13T00:22:18.856Z,49.50
2018-08-13T00:24:47.459Z,49.50
2018-08-13T00:27:16.144Z,49.70
2018-08-13T00:29:45.060Z,49.60
2018-08-13T00:32:13.720Z,49.50
2018-08-13T00:34:42.754Z,49.80
2018-08-13T00:37:11.389Z,50.00
2018-08-13T00:39:40.127Z,49.90
2018-08-13T00:42:08.901Z,50.20
2018-08-13T00:44:37.586Z,50.60
2018-08-13T00:47:06.323Z,50.80
2018-08-13T00:49:35.079Z,50.90
2018-08-13T00:52:03.758Z,51.40
2018-08-13T00:54:32.400Z,50.70
2018-08-13T00:57:01.027Z,50.60
2018-08-13T00:59:29.850Z,50.50
2018-08-13T01:01:58.882Z,50.20
2018-08-13T01:04:27.683Z,50.30
2018-08-13T01:06:56.815Z,50.30
2018-08-13T01:09:25.491Z,50.30
2018-08-13T01:11:54.187Z,50.00
2018-08-13T01:14:22.842Z,50.20
2018-08-13T01:16:51.511Z,51.00
2018-08-13T01:19:20.626Z,50.90
2018-08-13T01:21:49.629Z,50.30
2018-08-13T01:24:18.272Z,50.20
2018-08-13T01:26:46.939Z,50.30
2018-08-13T01:29:15.504Z,50.20
2018-08-13T01:31:44.211Z,50.20
2018-08-13T01:34:12.862Z,50.10
2018-08-13T01:36:41.620Z,50.00
2018-08-13T01:39:11.208Z,50.00
2018-08-13T01:41:39.904Z,50.10
2018-08-13T01:44:08.532Z,50.00
2018-08-13T01:46:37.244Z,50.10
2018-08-13T01:49:05.828Z,50.10
2018-08-13T01:51:34.503Z,50.20
2018-08-13T01:54:03.111Z,50.40
2018-08-13T01:56:32.180Z,50.30
2018-08-13T01:59:00.743Z,50.50
2018-08-13T02:01:29.467Z,50.70
2018-08-13T02:03:57.994Z,50.70
2018-08-13T02:06:26.650Z,51.00
2018-08-13T02:08:55.266Z,51.20
2018-08-13T02:11:23.997Z,51.20
2018-08-13T02:13:52.676Z,51.10
2018-08-13T02:16:21.273Z,51.30
2018-08-13T02:18:49.907Z,51.80
2018-08-13T02:21:18.512Z,52.40
2018-08-13T02:23:47.117Z,52.40
2018-08-13T02:26:15.756Z,52.40
2018-08-13T02:28:44.383Z,52.40
2018-08-13T02:31:13.292Z,52.30
2018-08-13T02:33:41.908Z,52.30
2018-08-13T02:36:10.532Z,52.30
2018-08-13T02:38:39.214Z,52.10
2018-08-13T02:41:07.835Z,51.70
2018-08-13T02:43:36.591Z,51.50
2018-08-13T02:46:05.242Z,51.50
2018-08-13T02:48:33.928Z,51.40
2018-08-13T02:51:02.677Z,51.20
2018-08-13T02:53:32.011Z,51.80
2018-08-13T02:56:00.716Z,52.30
2018-08-13T02:58:29.428Z,52.60
2018-08-13T03:00:58.130Z,52.70
2018-08-13T03:03:26.842Z,53.40
2018-08-13T03:05:55.504Z,52.80
2018-08-13T03:08:24.180Z,52.70
2018-08-13T03:10:52.830Z,52.10
2018-08-13T03:13:21.468Z,51.90
2018-08-13T03:15:50.319Z,52.20
2018-08-13T03:18:18.989Z,52.50
2018-08-13T03:20:47.562Z,52.60
2018-08-13T03:23:16.246Z,52.80
2018-08-13T03:25:45.225Z,52.20
2018-08-13T03:28:13.872Z,51.80
2018-08-13T03:30:42.513Z,52.30
2018-08-13T03:33:11.211Z,52.90
2018-08-13T03:35:39.854Z,53.30
2018-08-13T03:38:08.543Z,53.50
2018-08-13T03:40:37.140Z,53.50
2018-08-13T03:43:06.117Z,53.20
2018-08-13T03:45:35.025Z,53.20
2018-08-13T03:48:03.650Z,52.90
2018-08-13T03:50:32.325Z,52.50
2018-08-13T03:53:00.956Z,52.50
2018-08-13T03:55:29.573Z,52.20
2018-08-13T03:57:58.318Z,52.10
2018-08-13T04:00:27.507Z,52.00
2018-08-13T04:02:56.094Z,52.00
2018-08-13T04:05:24.609Z,51.70
2018-08-13T04:07:53.273Z,51.70
2018-08-13T04:10:21.847Z,51.60
2018-08-13T04:12:50.483Z,51.60
2018-08-13T04:15:19.139Z,51.70
2018-08-13T04:17:47.790Z,53.10
2018-08-13T04:20:16.510Z,53.80
2018-08-13T04:22:45.521Z,53.90
2018-08-13T04:25:14.240Z,54.10
2018-08-13T04:27:43.547Z,54.00
2018-08-13T04:30:15.044Z,54.00
2018-08-13T04:32:44.438Z,54.10
2018-08-13T04:35:13.120Z,54.00
2018-08-13T04:37:42.543Z,54.10
2018-08-13T04:40:13.103Z,53.80
2018-08-13T04:42:42.827Z,53.10
2018-08-13T04:45:11.563Z,52.70
2018-08-13T04:47:40.710Z,52.40
2018-08-13T04:50:10.476Z,52.90
2018-08-13T04:52:39.360Z,52.20
2018-08-13T04:55:09.127Z,52.00
2018-08-13T04:57:37.676Z,52.00
2018-08-13T05:00:07.345Z,52.00
2018-08-13T05:02:36.094Z,51.80
2018-08-13T05:05:06.080Z,51.70
2018-08-13T05:07:34.672Z,51.80
2018-08-13T05:10:03.510Z,52.30
2018-08-13T05:12:32.188Z,52.70
2018-08-13T05:15:00.891Z,53.10
2018-08-13T05:17:29.451Z,53.30
2018-08-13T05:19:58.074Z,53.50
2018-08-13T05:22:27.081Z,53.60
2018-08-13T05:24:55.836Z,53.50
2018-08-13T05:27:24.474Z,53.40
2018-08-13T05:29:53.375Z,53.40
2018-08-13T05:32:22.439Z,53.30
2018-08-13T05:34:51.284Z,52.40
2018-08-13T05:37:19.960Z,52.10
2018-08-13T05:39:48.637Z,51.70
2018-08-13T05:42:17.221Z,51.20
2018-08-13T05:44:45.930Z,50.80
2018-08-13T05:47:14.556Z,50.80
2018-08-13T05:49:43.202Z,50.20
2018-08-13T05:52:11.750Z,49.90
2018-08-13T05:54:40.424Z,49.90
2018-08-13T05:57:09.007Z,49.90
2018-08-13T05:59:37.721Z,49.60
2018-08-13T06:02:06.386Z,49.80
2018-08-13T06:04:35.153Z,49.90
2018-08-13T06:07:04.690Z,49.80
2018-08-13T06:09:33.357Z,49.60
2018-08-13T06:12:01.959Z,49.50
2018-08-13T06:14:30.944Z,49.30
2018-08-13T06:17:00.047Z,49.10
2018-08-13T06:19:28.859Z,48.90
2018-08-13T06:21:57.500Z,48.70
2018-08-13T06:24:26.806Z,48.60
2018-08-13T06:26:56.634Z,48.70
2018-08-13T06:29:25.296Z,48.70
2018-08-13T06:32:02.102Z,48.60
2018-08-13T06:34:33.859Z,48.30
2018-08-13T06:37:05.887Z,48.20
2018-08-13T06:39:35.665Z,48.30
2018-08-13T06:42:07.469Z,48.30
2018-08-13T06:44:37.823Z,48.20
2018-08-13T06:47:06.862Z,48.10
2018-08-13T06:49:35.500Z,47.70
2018-08-13T06:52:04.193Z,47.60
2018-08-13T06:54:33.181Z,47.40
2018-08-13T06:57:02.335Z,47.20
2018-08-13T06:59:31.180Z,47.40
2018-08-13T07:01:59.717Z,47.30
2018-08-13T07:04:28.702Z,47.20
2018-08-13T07:06:57.501Z,47.20
2018-08-13T07:09:26.122Z,47.20
2018-08-13T07:11:54.870Z,47.20
2018-08-13T07:14:23.613Z,46.70
2018-08-13T07:16:52.749Z,46.50
2018-08-13T07:19:21.540Z,46.30
2018-08-13T07:21:50.173Z,46.10
2018-08-13T07:24:19.156Z,46.20
2018-08-13T07:26:47.804Z,46.30
2018-08-13T07:29:16.436Z,46.30
2018-08-13T07:31:45.135Z,46.10
2018-08-13T07:34:13.871Z,46.30
2018-08-13T07:36:43.045Z,45.90
2018-08-13T07:39:12.887Z,45.70
2018-08-13T07:41:41.788Z,44.80
2018-08-13T07:44:10.541Z,44.40
2018-08-13T07:46:39.408Z,44.40
2018-08-13T07:49:08.069Z,44.40
2018-08-13T07:51:36.745Z,44.60
2018-08-13T07:54:05.750Z,44.70
2018-08-13T07:56:34.682Z,45.40
2018-08-13T07:59:03.997Z,45.80
2018-08-13T08:01:32.779Z,45.90
2018-08-13T08:04:01.686Z,45.90
2018-08-13T08:06:30.368Z,45.60
2018-08-13T08:08:59.474Z,45.70
2018-08-13T08:11:28.243Z,46.20
2018-08-13T08:13:57.290Z,46.20
2018-08-13T08:16:25.992Z,46.20
2018-08-13T08:18:54.567Z,45.70
2018-08-13T08:21:23.378Z,45.40
2018-08-13T08:23:51.898Z,44.40
2018-08-13T08:26:20.894Z,44.20
2018-08-13T08:28:50.267Z,44.70
2018-08-13T08:31:19.342Z,44.90
2018-08-13T08:33:47.974Z,45.10
2018-08-13T08:36:16.679Z,45.00
2018-08-13T08:38:45.456Z,45.00
2018-08-13T08:41:14.121Z,44.70
2018-08-13T08:43:42.712Z,44.70
2018-08-13T08:46:12.963Z,44.70
2018-08-13T08:48:41.776Z,45.10
2018-08-13T08:51:10.347Z,45.10
2018-08-13T08:53:39.383Z,45.10
2018-08-13T08:56:08.615Z,45.10
2018-08-13T08:58:37.295Z,44.90
2018-08-13T09:01:07.298Z,45.00
2018-08-13T09:03:35.919Z,45.00
2018-08-13T09:06:05.108Z,45.30
2018-08-13T09:08:33.764Z,45.40
2018-08-13T09:11:02.479Z,45.70
2018-08-13T09:13:31.402Z,45.80
2018-08-13T09:16:00.145Z,45.80
2018-08-13T09:18:40.132Z,46.20
2018-08-13T09:21:19.796Z,46.40
2018-08-13T09:26:07.164Z,46.60
2018-08-13T09:28:46.874Z,46.70
2018-08-13T09:31:36.532Z,47.20
2018-08-13T09:34:14.976Z,47.30
2018-08-13T09:36:43.804Z,47.30
2018-08-13T09:39:12.530Z,47.30
2018-08-13T09:41:43.036Z,47.20
2018-08-13T09:44:12.122Z,47.20
2018-08-13T09:46:41.480Z,47.40
2018-08-13T09:49:10.195Z,47.60
2018-08-13T09:51:39.000Z,47.60
2018-08-13T09:54:07.899Z,47.60
2018-08-13T09:56:36.624Z,48.10
2018-08-13T09:59:05.292Z,48.10
2018-08-13T10:01:33.920Z,48.30
2018-08-13T10:04:02.583Z,48.50
2018-08-13T10:06:31.284Z,49.30
2018-08-13T10:08:59.889Z,49.60
2018-08-13T10:11:28.645Z,49.90
2018-08-13T10:13:57.321Z,50.10
2018-08-13T10:16:25.961Z,50.40
2018-08-13T10:18:55.006Z,50.70
2018-08-13T10:21:23.613Z,50.90
2018-08-13T10:23:52.224Z,51.00
2018-08-13T10:26:21.190Z,51.30
2018-08-13T10:28:50.146Z,51.60
2018-08-13T10:31:18.759Z,52.40
2018-08-13T10:33:47.675Z,51.80
2018-08-13T10:36:16.579Z,52.00
2018-08-13T10:38:45.167Z,52.20
2018-08-13T10:41:14.096Z,52.00
2018-08-13T10:43:42.955Z,51.90
2018-08-13T10:46:11.693Z,51.90
2018-08-13T10:48:40.374Z,52.20
2018-08-13T10:51:09.044Z,52.20
2018-08-13T10:53:37.714Z,52.20
2018-08-13T10:56:06.454Z,51.90
2018-08-13T10:58:35.349Z,51.90
2018-08-13T11:01:04.266Z,52.10
2018-08-13T11:03:33.504Z,52.50
2018-08-13T11:06:02.092Z,52.50
2018-08-13T11:08:31.294Z,52.20
2018-08-13T11:10:59.977Z,52.30
2018-08-13T11:13:28.658Z,52.50
2018-08-13T11:15:57.348Z,52.30
2018-08-13T11:18:26.941Z,52.20
2018-08-13T11:20:55.584Z,52.20
2018-08-13T11:23:24.287Z,52.30
2018-08-13T11:25:52.928Z,52.30
2018-08-13T11:28:22.256Z,52.50
2018-08-13T11:30:51.004Z,52.50
2018-08-13T11:33:20.018Z,52.60
2018-08-13T11:35:48.684Z,52.40
2018-08-13T11:38:17.853Z,52.20
2018-08-13T11:40:46.672Z,52.10
2018-08-13T11:43:15.296Z,52.40
2018-08-13T11:45:44.126Z,52.30
2018-08-13T11:48:12.875Z,52.60
2018-08-13T11:50:41.536Z,52.80
2018-08-13T11:53:10.436Z,52.80
2018-08-13T11:55:39.097Z,52.80
2018-08-13T11:58:07.986Z,52.70
2018-08-13T12:00:36.954Z,52.70
2018-08-13T12:03:06.132Z,52.90
2018-08-13T12:05:34.869Z,53.10
2018-08-13T12:08:03.401Z,53.30
2018-08-13T12:10:32.087Z,53.20
2018-08-13T12:13:00.639Z,53.10
2018-08-13T12:15:29.738Z,53.00
2018-08-13T12:17:58.581Z,52.80
2018-08-13T12:20:27.264Z,52.80
2018-08-13T12:22:56.295Z,52.70
2018-08-13T12:25:28.867Z,53.10
2018-08-13T12:27:57.582Z,53.80
2018-08-13T12:30:26.976Z,53.60
2018-08-13T12:32:56.188Z,54.00
2018-08-13T12:35:25.395Z,54.00
2018-08-13T12:37:54.437Z,53.90
2018-08-13T12:40:23.145Z,53.90
2018-08-13T12:42:52.200Z,54.30
2018-08-13T12:45:20.833Z,53.90
2018-08-13T12:47:49.615Z,53.70
2018-08-13T12:50:19.728Z,53.70
2018-08-13T12:52:49.575Z,53.50
2018-08-13T12:55:18.473Z,53.40
2018-08-13T12:57:47.302Z,53.30
2018-08-13T13:00:17.381Z,53.20
2018-08-13T13:02:46.305Z,53.40
2018-08-13T13:05:16.027Z,53.30
2018-08-13T13:07:45.213Z,53.20
2018-08-13T13:10:15.383Z,53.10
2018-08-13T13:12:44.527Z,53.10
2018-08-13T13:15:14.863Z,53.00
2018-08-13T13:17:43.493Z,52.70
2018-08-13T13:20:15.046Z,52.80
2018-08-13T13:22:44.199Z,52.60
2018-08-13T13:25:13.068Z,52.60
2018-08-13T13:27:41.868Z,52.60
2018-08-13T13:30:12.603Z,52.60
2018-08-13T13:32:41.438Z,52.50
2018-08-13T13:35:11.861Z,52.10
2018-08-13T13:37:40.772Z,51.40
2018-08-13T13:40:13.705Z,51.50
2018-08-13T13:42:42.711Z,51.10
2018-08-13T13:45:12.311Z,51.00
2018-08-13T13:47:41.488Z,50.70
2018-08-13T13:50:12.566Z,50.80
2018-08-13T13:52:41.543Z,50.50
2018-08-13T13:55:10.340Z,51.00
2018-08-13T13:57:39.170Z,50.40
2018-08-13T14:00:18.827Z,50.60
2018-08-13T14:02:48.691Z,50.70
2018-08-13T14:05:17.737Z,50.70
2018-08-13T14:07:46.558Z,51.00
2018-08-13T14:10:17.875Z,51.00
2018-08-13T14:12:47.047Z,50.90
2018-08-13T14:15:17.327Z,51.10
2018-08-13T14:17:46.236Z,51.20
2018-08-13T14:20:15.072Z,51.00
2018-08-13T14:22:43.799Z,50.80
2018-08-13T14:25:13.577Z,50.70
2018-08-13T14:27:42.401Z,50.40
2018-08-13T14:30:24.649Z,50.00
2018-08-13T14:32:53.362Z,49.70
2018-08-13T14:35:22.952Z,49.90
2018-08-13T14:37:51.892Z,50.00
2018-08-13T14:40:20.696Z,49.90
2018-08-13T14:42:49.969Z,50.50
2018-08-13T14:45:20.083Z,50.00
2018-08-13T14:47:50.384Z,49.80
2018-08-13T14:50:19.476Z,50.00
2018-08-13T14:52:49.016Z,49.50
2018-08-13T14:55:20.075Z,49.80
2018-08-13T14:57:48.825Z,50.60
2018-08-13T15:00:22.569Z,50.10
2018-08-13T15:02:51.819Z,50.30
2018-08-13T15:05:20.968Z,50.00
2018-08-13T15:07:49.668Z,50.10
2018-08-13T15:10:19.965Z,50.50
2018-08-13T15:12:50.198Z,50.40
2018-08-13T15:15:18.820Z,50.40
2018-08-13T15:17:47.586Z,50.30
2018-08-13T15:20:21.105Z,50.40
2018-08-13T15:22:49.712Z,50.30
2018-08-13T15:25:18.502Z,50.30
2018-08-13T15:27:47.356Z,50.40
2018-08-13T15:30:17.569Z,50.40
2018-08-13T15:32:47.517Z,50.50
2018-08-13T15:35:16.165Z,50.50
2018-08-13T15:37:45.523Z,50.50
2018-08-13T15:40:14.311Z,50.60
2018-08-13T15:42:44.063Z,51.00
2018-08-13T15:45:15.808Z,50.80
2018-08-13T15:47:44.823Z,51.00
2018-08-13T15:50:15.505Z,50.50
2018-08-13T15:52:44.615Z,50.50
2018-08-13T15:55:13.617Z,50.40
2018-08-13T15:57:45.149Z,50.70
2018-08-13T16:00:22.565Z,50.80
2018-08-13T16:02:51.424Z,50.90
2018-08-13T16:05:20.709Z,51.00
2018-08-13T16:07:49.688Z,51.10
2018-08-13T16:10:18.703Z,51.10
2018-08-13T16:12:47.541Z,51.20
2018-08-13T16:15:16.725Z,51.30
2018-08-13T16:17:45.476Z,51.40
2018-08-13T16:20:17.302Z,51.70
2018-08-13T16:22:46.974Z,51.60
2018-08-13T16:25:16.091Z,51.50
2018-08-13T16:27:45.807Z,51.60
2018-08-13T16:30:28.499Z,51.80
2018-08-13T16:32:57.363Z,52.00
2018-08-13T16:35:26.163Z,52.20
2018-08-13T16:37:55.174Z,52.30
2018-08-13T16:40:24.292Z,52.30
2018-08-13T16:42:53.723Z,52.40
2018-08-13T16:45:22.826Z,52.50
2018-08-13T16:47:51.899Z,52.50
2018-08-13T16:50:25.099Z,52.70
2018-08-13T16:52:54.101Z,52.50
2018-08-13T16:55:22.945Z,52.60
2018-08-13T16:57:51.706Z,52.80
2018-08-13T17:00:24.401Z,53.70
2018-08-13T17:02:53.185Z,56.00
2018-08-13T17:05:21.982Z,57.20
2018-08-13T17:07:51.255Z,60.10
2018-08-13T17:10:23.175Z,62.00
2018-08-13T17:12:52.549Z,64.30
2018-08-13T17:15:21.366Z,66.30
2018-08-13T17:17:52.852Z,69.80
2018-08-13T17:20:25.588Z,70.40
2018-08-13T17:22:54.960Z,71.40
2018-08-13T17:25:24.024Z,70.90
2018-08-13T17:27:52.749Z,73.70
2018-08-13T17:30:23.131Z,73.20
2018-08-13T17:32:53.016Z,74.30
2018-08-13T17:35:24.635Z,74.00
2018-08-13T17:37:53.448Z,74.10
2018-08-13T17:40:23.487Z,74.30
2018-08-13T17:42:54.025Z,73.60
2018-08-13T17:45:22.674Z,73.30
2018-08-13T17:47:51.636Z,74.60
2018-08-13T17:50:21.317Z,75.40
2018-08-13T17:52:50.077Z,75.20
2018-08-13T17:55:19.569Z,75.20
2018-08-13T17:57:48.712Z,74.50
2018-08-13T18:00:21.630Z,75.00
2018-08-13T18:02:50.243Z,75.00
2018-08-13T18:05:21.004Z,74.80
2018-08-13T18:07:50.144Z,74.80
2018-08-13T18:10:28.650Z,74.40
2018-08-13T18:12:58.609Z,75.00
2018-08-13T18:15:27.338Z,75.20
2018-08-13T18:17:56.415Z,75.10
2018-08-13T18:20:25.070Z,74.40
2018-08-13T18:22:53.713Z,73.60
2018-08-13T18:25:22.357Z,72.90
2018-08-13T18:27:51.702Z,73.00
2018-08-13T18:30:23.188Z,72.20
2018-08-13T18:32:52.174Z,72.00
2018-08-13T18:35:20.831Z,72.20
2018-08-13T18:37:49.486Z,71.80
2018-08-13T18:40:21.313Z,71.70
2018-08-13T18:42:50.085Z,71.70
2018-08-13T18:45:18.808Z,71.00
2018-08-13T18:47:48.029Z,71.60
2018-08-13T18:50:18.169Z,71.30
2018-08-13T18:52:46.946Z,70.90
2018-08-13T18:55:16.936Z,70.60
2018-08-13T18:57:46.075Z,70.60
2018-08-13T19:00:17.304Z,70.80
2018-08-13T19:02:46.144Z,71.00
2018-08-13T19:05:16.490Z,71.40
2018-08-13T19:07:45.879Z,71.30
2018-08-13T19:10:15.592Z,71.60
2018-08-13T19:12:44.491Z,70.90
2018-08-13T19:15:17.003Z,71.00
2018-08-13T19:17:45.756Z,71.90
2018-08-13T19:20:15.078Z,71.30
2018-08-13T19:22:44.294Z,70.90
2018-08-13T19:25:15.795Z,70.80
2018-08-13T19:27:44.886Z,70.70
2018-08-13T19:30:15.709Z,70.50
2018-08-13T19:32:45.456Z,70.80
2018-08-13T19:35:14.045Z,70.50
2018-08-13T19:37:43.235Z,70.50
2018-08-13T19:40:14.995Z,70.30
2018-08-13T19:42:44.198Z,70.20
2018-08-13T19:45:14.580Z,69.80
2018-08-13T19:47:43.552Z,69.90
2018-08-13T19:50:12.732Z,69.50
2018-08-13T19:52:42.868Z,69.70
2018-08-13T19:55:12.011Z,69.40
2018-08-13T19:57:41.035Z,69.70
2018-08-13T20:00:17.975Z,69.40
2018-08-13T20:02:47.273Z,69.10
2018-08-13T20:05:16.113Z,69.30
2018-08-13T20:07:44.827Z,69.10
2018-08-13T20:10:14.883Z,69.50
2018-08-13T20:12:44.292Z,69.40
2018-08-13T20:15:13.455Z,69.60
2018-08-13T20:17:42.526Z,69.40
2018-08-13T20:20:12.995Z,69.40
2018-08-13T20:22:42.118Z,69.20
2018-08-13T20:25:12.335Z,69.30
2018-08-13T20:27:40.991Z,69.50
2018-08-13T20:30:13.869Z,70.00
2018-08-13T20:32:43.080Z,70.40
2018-08-13T20:35:11.945Z,70.10
2018-08-13T20:37:40.628Z,70.10
2018-08-13T20:40:12.700Z,70.10
2018-08-13T20:42:41.547Z,70.00
2018-08-13T20:45:13.216Z,70.00
2018-08-13T20:47:42.335Z,70.30
2018-08-13T20:50:14.076Z,70.90
2018-08-13T20:52:43.036Z,71.10
2018-08-13T20:55:16.530Z,71.30
2018-08-13T20:57:46.023Z,71.90
2018-08-13T21:00:15.993Z,71.90
2018-08-13T21:02:45.923Z,72.00
2018-08-13T21:05:15.022Z,71.70
2018-08-13T21:07:43.963Z,71.30
2018-08-13T21:10:15.047Z,70.70
2018-08-13T21:12:43.660Z,70.90
2018-08-13T21:15:13.989Z,71.30
2018-08-13T21:17:42.772Z,70.90
2018-08-13T21:20:13.683Z,71.00
2018-08-13T21:22:42.337Z,71.00
2018-08-13T21:25:12.853Z,71.40
2018-08-13T21:27:42.514Z,71.80
2018-08-13T21:30:11.445Z,71.50
2018-08-13T21:32:40.799Z,72.10
2018-08-13T21:35:09.879Z,71.80
2018-08-13T21:37:38.545Z,72.10
2018-08-13T21:40:09.032Z,71.80
2018-08-13T21:42:37.761Z,71.90
2018-08-13T21:45:07.323Z,72.10
2018-08-13T21:47:36.035Z,72.10
2018-08-13T21:50:07.770Z,71.90
2018-08-13T21:52:36.348Z,71.70
2018-08-13T21:55:06.123Z,71.80
2018-08-13T21:57:34.702Z,72.20
2018-08-13T22:00:03.430Z,72.30
2018-08-13T22:02:32.066Z,72.20
2018-08-13T22:05:00.696Z,71.80
2018-08-13T22:07:29.313Z,71.80
2018-08-13T22:09:57.900Z,72.00
2018-08-13T22:12:27.575Z,72.10
2018-08-13T22:14:56.222Z,72.30
2018-08-13T22:17:24.923Z,72.10
2018-08-13T22:19:53.540Z,72.10
2018-08-13T22:22:22.497Z,72.10
2018-08-13T22:25:02.041Z,72.20
2018-08-13T22:27:31.097Z,72.30
2018-08-13T22:30:00.437Z,72.10
2018-08-13T22:32:29.100Z,73.20
2018-08-13T22:34:58.166Z,72.50
2018-08-13T22:37:26.750Z,72.60
2018-08-13T22:39:55.745Z,72.50
2018-08-13T22:42:24.298Z,72.50
2018-08-13T22:44:52.871Z,72.70
2018-08-13T22:47:21.448Z,72.50
2018-08-13T22:49:50.039Z,72.40
2018-08-13T22:52:18.668Z,71.80
2018-08-13T22:54:47.306Z,71.40
2018-08-13T22:57:15.892Z,71.60
2018-08-13T22:59:44.561Z,72.20
2018-08-13T23:02:13.195Z,71.90
2018-08-13T23:04:41.811Z,72.10
2018-08-13T23:07:10.887Z,71.60
2018-08-13T23:09:39.660Z,71.80
2018-08-13T23:12:10.124Z,71.30
2018-08-13T23:14:39.241Z,71.10
2018-08-13T23:17:07.926Z,70.80
2018-08-13T23:19:36.548Z,71.30
2018-08-13T23:22:05.219Z,71.00
2018-08-13T23:24:34.030Z,71.00
2018-08-13T23:27:03.254Z,70.90
2018-08-13T23:29:32.301Z,70.80
2018-08-13T23:32:01.491Z,70.60
2018-08-13T23:34:30.134Z,70.20
2018-08-13T23:36:58.769Z,70.30
2018-08-13T23:39:27.431Z,70.00
2018-08-13T23:41:56.078Z,70.10
2018-08-13T23:44:24.626Z,70.30
2018-08-13T23:46:53.553Z,70.40
2018-08-13T23:49:22.083Z,70.40
2018-08-13T23:51:50.824Z,70.40
2018-08-13T23:54:19.427Z,70.70
2018-08-13T23:56:47.991Z,70.60
2018-08-13T23:59:17.128Z,70.50
